Dawson, Alabama
Current Conditions -  °F | °C
As of 3:35 PM on Thursday 23 Oct 2014 (Local Time) from K4A9 Reporting Station
Clear Clear  
Wind Chill: 66°   Ceiling: Unl
Heat Index: 66°   Visibility: 10mi
Dew Point: 30°   Wind: 7mph
Humidity: 26%   Direction: 40°NE
Pressure: 30.06"   Gusts: NA
Location:  34.3°N, 85.93°W
Report Text: K4A9 232035Z AUTO 04006KT 10SM CLR 19/M01 A3006 RMK AO2
Loading
Personal Weather Stations






























Interactive Weather Map New forecast layout! Learn more

10-Day Weather Forecast

Advertisements
Track Severe Weather on mobile